Time;durP1;ratioP1;P1;durP2;ratioP2;P2;SDS_P1;SDS_P2;PMS_P1;PMS_P2;Temp;Humidity;BMP_temperature;BMP_pressure;BME280_temperature;BME280_humidity;BME280_pressure;Samples;Min_cycle;Max_cycle;Signal;HPM_P1;HPM_P2
2024/02/14 00:00:55;;;;;;;16.87;8.07;;;5.60;99.90;;;;;;5033473;28;20950;-90
2024/02/14 00:03:51;;;;;;;17.83;8.30;;;5.80;99.90;;;;;;5033189;28;20676;-90
2024/02/14 00:06:46;;;;;;;19.37;8.27;;;5.60;99.90;;;;;;5033894;28;20340;-83
2024/02/14 00:09:44;;;;;;;18.07;8.50;;;5.50;99.90;;;;;;5033601;28;20195;-90
2024/02/14 00:12:46;;;;;;;18.37;8.70;;;5.50;99.90;;;;;;5031833;28;20224;-89
2024/02/14 00:15:47;;;;;;;17.83;8.93;;;5.40;99.90;;;;;;5048747;28;20259;-89
2024/02/14 00:18:46;;;;;;;17.03;8.07;;;5.40;99.90;;;;;;5055630;28;20231;-89
2024/02/14 00:21:47;;;;;;;18.90;8.40;;;5.40;99.90;;;;;;5057477;28;20232;-89
2024/02/14 00:24:42;;;;;;;15.93;8.77;;;5.40;99.90;;;;;;5071120;28;20251;-89
2024/02/14 00:27:59;;;;;;;15.97;8.23;;;5.40;99.90;;;;;;5058224;28;20211;-90
2024/02/14 00:31:07;;;;;;;16.40;8.80;;;5.40;99.90;;;;;;5070285;28;20251;-90
2024/02/14 00:34:12;;;;;;;16.60;8.00;;;5.40;99.90;;;;;;5057931;28;20197;-90
2024/02/14 00:37:23;;;;;;;19.07;8.30;;;5.40;99.90;;;;;;5058991;28;20195;-90
2024/02/14 00:40:29;;;;;;;16.47;7.93;;;5.60;99.90;;;;;;5045043;28;20224;-90
2024/02/14 00:43:38;;;;;;;15.17;7.73;;;5.50;99.90;;;;;;5044231;28;20211;-89
2024/02/14 00:46:42;;;;;;;14.07;7.47;;;5.40;99.90;;;;;;5057586;28;20227;-89
2024/02/14 00:49:56;;;;;;;17.93;7.97;;;5.40;99.90;;;;;;5042679;28;20204;-89
2024/02/14 00:53:01;;;;;;;18.20;8.60;;;5.30;99.90;;;;;;5040316;28;20352;-90
2024/02/14 00:56:06;;;;;;;18.40;8.37;;;5.30;99.90;;;;;;5056575;28;20658;-90
2024/02/14 00:59:11;;;;;;;17.27;8.37;;;5.30;99.90;;;;;;5053140;28;20555;-90
2024/02/14 01:02:15;;;;;;;15.50;7.70;;;5.40;99.90;;;;;;5048023;28;20274;-90
2024/02/14 01:05:19;;;;;;;21.27;8.80;;;5.40;99.90;;;;;;5067856;28;20203;-88
2024/02/14 01:08:22;;;;;;;16.63;8.30;;;5.40;99.90;;;;;;5071251;28;20226;-89
2024/02/14 01:11:23;;;;;;;23.07;8.27;;;5.40;99.90;;;;;;5059908;28;20187;-89
2024/02/14 01:14:16;;;;;;;18.60;7.73;;;5.40;99.90;;;;;;5054671;28;20199;-90
2024/02/14 01:17:15;;;;;;;16.17;7.73;;;5.40;99.90;;;;;;5049386;28;20237;-89
2024/02/14 01:20:16;;;;;;;19.43;8.00;;;5.40;99.90;;;;;;5020316;28;20200;-89
2024/02/14 01:23:14;;;;;;;18.60;7.90;;;5.40;99.90;;;;;;5033584;28;20195;-90
2024/02/14 01:26:11;;;;;;;16.30;7.90;;;5.30;99.90;;;;;;5035179;28;20203;-89
2024/02/14 01:29:16;;;;;;;18.67;8.13;;;5.20;99.90;;;;;;5022124;28;20207;-89
2024/02/14 01:32:17;;;;;;;13.30;7.60;;;5.20;99.90;;;;;;5021638;28;20198;-89
2024/02/14 01:35:23;;;;;;;18.90;8.60;;;5.10;99.90;;;;;;5020557;28;20218;-89
2024/02/14 01:38:26;;;;;;;14.83;7.60;;;5.20;99.90;;;;;;5020197;28;20644;-88
2024/02/14 01:41:29;;;;;;;15.57;7.83;;;5.10;99.90;;;;;;5033680;28;20215;-88
2024/02/14 01:44:38;;;;;;;15.00;7.77;;;4.90;99.90;;;;;;5033582;28;20198;-88
2024/02/14 01:47:32;;;;;;;13.20;7.40;;;5.00;99.90;;;;;;4997057;28;20203;-88
2024/02/14 01:50:28;;;;;;;15.77;7.43;;;5.00;99.90;;;;;;5034559;28;20203;-88
2024/02/14 01:53:18;;;;;;;16.97;8.30;;;5.00;99.90;;;;;;5033095;28;20555;-88
2024/02/14 01:56:15;;;;;;;17.23;7.87;;;5.00;99.90;;;;;;5034557;28;20652;-88
2024/02/14 01:59:10;;;;;;;18.97;8.80;;;4.80;99.90;;;;;;5034325;28;20667;-89
2024/02/14 02:02:09;;;;;;;18.87;9.27;;;4.70;99.90;;;;;;5033765;28;20301;-89
2024/02/14 02:05:05;;;;;;;19.57;9.53;;;4.60;99.90;;;;;;5019434;28;20562;-88
2024/02/14 02:08:00;;;;;;;19.67;9.67;;;4.50;99.90;;;;;;5020221;28;20187;-89
2024/02/14 02:11:04;;;;;;;20.53;10.13;;;4.50;99.90;;;;;;5020213;28;20206;-88
2024/02/14 02:14:05;;;;;;;16.80;9.07;;;4.20;99.90;;;;;;5033154;28;20337;-88
2024/02/14 02:17:01;;;;;;;18.70;9.53;;;4.30;99.90;;;;;;5019767;28;20239;-89
2024/02/14 02:20:00;;;;;;;22.93;10.23;;;4.30;99.90;;;;;;5032859;28;20218;-89
2024/02/14 02:22:55;;;;;;;19.97;10.17;;;4.20;99.90;;;;;;5020276;28;20206;-89
2024/02/14 02:25:51;;;;;;;20.13;10.03;;;4.20;99.90;;;;;;5034646;28;20654;-89
2024/02/14 02:28:40;;;;;;;21.00;10.33;;;4.20;99.90;;;;;;5033628;28;20189;-89
2024/02/14 02:31:29;;;;;;;21.97;10.60;;;4.20;99.90;;;;;;5032808;28;20202;-87
2024/02/14 02:34:18;;;;;;;24.80;11.07;;;4.10;99.90;;;;;;5033813;28;20280;-88
2024/02/14 02:37:12;;;;;;;24.67;10.87;;;4.10;99.90;;;;;;5033091;28;20200;-89
2024/02/14 02:40:00;;;;;;;19.60;10.47;;;4.10;99.90;;;;;;5032085;28;20199;-89
2024/02/14 02:42:55;;;;;;;24.43;10.97;;;3.90;99.90;;;;;;5018667;28;20244;-88
2024/02/14 02:45:48;;;;;;;22.00;10.60;;;4.00;99.90;;;;;;5032808;28;20246;-89
2024/02/14 02:48:37;;;;;;;23.00;10.87;;;3.90;99.90;;;;;;5032914;28;20689;-88
2024/02/14 02:51:37;;;;;;;23.83;11.07;;;3.90;99.90;;;;;;5033289;28;20657;-88
2024/02/14 02:54:30;;;;;;;25.90;11.33;;;3.80;99.90;;;;;;5020067;28;20197;-89
2024/02/14 02:57:19;;;;;;;27.03;12.63;;;3.90;99.90;;;;;;5017907;28;20219;-88
2024/02/14 03:00:12;;;;;;;30.53;12.80;;;3.90;99.90;;;;;;5032500;28;20200;-88
2024/02/14 03:03:08;;;;;;;32.70;14.00;;;3.80;99.90;;;;;;5032995;28;20199;-89
2024/02/14 03:06:03;;;;;;;26.23;11.70;;;3.60;99.90;;;;;;5032343;28;20201;-88
2024/02/14 03:09:01;;;;;;;27.10;11.63;;;3.70;99.90;;;;;;5032440;28;20203;-89
2024/02/14 03:11:56;;;;;;;23.90;11.33;;;3.60;99.90;;;;;;5033774;28;20203;-88
2024/02/14 03:14:50;;;;;;;25.83;11.43;;;3.60;99.90;;;;;;5032961;28;20195;-89
2024/02/14 03:17:55;;;;;;;25.10;11.13;;;3.60;99.90;;;;;;5032975;28;20302;-88
2024/02/14 03:20:45;;;;;;;26.13;12.27;;;3.50;99.90;;;;;;5020129;28;20710;-89
2024/02/14 03:23:44;;;;;;;23.80;11.33;;;3.60;99.90;;;;;;5033097;28;20188;-88
2024/02/14 03:26:45;;;;;;;23.07;11.17;;;3.50;99.90;;;;;;5033450;28;20226;-88
2024/02/14 03:29:40;;;;;;;23.20;11.37;;;3.40;99.90;;;;;;5033032;28;20201;-88
2024/02/14 03:32:31;;;;;;;23.43;11.53;;;3.40;99.90;;;;;;5032079;28;20200;-87
2024/02/14 03:35:26;;;;;;;22.13;11.00;;;3.40;99.90;;;;;;5032753;28;20196;-89
2024/02/14 03:38:34;;;;;;;25.30;12.00;;;3.40;99.90;;;;;;5032806;28;20275;-89
2024/02/14 03:41:35;;;;;;;25.83;11.13;;;3.40;99.90;;;;;;5033452;28;20296;-89
2024/02/14 03:44:37;;;;;;;25.60;12.57;;;3.40;99.90;;;;;;5032305;28;20237;-88
2024/02/14 03:47:34;;;;;;;24.87;11.33;;;3.40;99.90;;;;;;5018515;28;20654;-89
2024/02/14 03:50:26;;;;;;;23.73;11.87;;;3.40;99.90;;;;;;5032451;28;20187;-88
2024/02/14 03:53:17;;;;;;;24.33;11.10;;;3.50;99.90;;;;;;5032070;28;20207;-87
2024/02/14 03:56:07;;;;;;;24.43;11.83;;;3.60;99.90;;;;;;5032140;28;20442;-88
2024/02/14 03:58:59;;;;;;;24.73;11.53;;;3.50;99.90;;;;;;5017443;28;20201;-88
2024/02/14 04:01:53;;;;;;;23.77;11.57;;;3.50;99.90;;;;;;5017400;28;20217;-87
2024/02/14 04:04:46;;;;;;;28.93;11.73;;;3.50;99.90;;;;;;5031521;28;20282;-89
2024/02/14 04:07:37;;;;;;;22.87;11.33;;;3.60;99.90;;;;;;5031516;28;20546;-89
2024/02/14 04:10:26;;;;;;;21.20;11.43;;;3.50;99.90;;;;;;5018824;28;20187;-89
2024/02/14 04:13:16;;;;;;;21.93;10.90;;;3.60;99.90;;;;;;5031832;28;20601;-89
2024/02/14 04:16:04;;;;;;;22.53;11.67;;;3.50;99.90;;;;;;5030839;28;20200;-88
2024/02/14 04:18:54;;;;;;;23.90;11.53;;;3.50;99.90;;;;;;5050417;28;20310;-89
2024/02/14 04:21:44;;;;;;;23.30;11.10;;;3.50;99.90;;;;;;5051490;28;20695;-88
2024/02/14 04:24:36;;;;;;;23.13;11.03;;;3.50;99.90;;;;;;5050960;28;20198;-89
2024/02/14 04:27:25;;;;;;;22.17;10.73;;;3.50;99.90;;;;;;5038147;28;20219;-88
2024/02/14 04:30:13;;;;;;;24.50;10.57;;;3.60;99.90;;;;;;5051590;28;20244;-88
2024/02/14 04:33:02;;;;;;;22.50;10.80;;;3.50;99.90;;;;;;5051743;28;20656;-88
2024/02/14 04:35:51;;;;;;;21.83;10.40;;;3.40;99.90;;;;;;5055184;28;20192;-88
2024/02/14 04:38:40;;;;;;;21.37;10.60;;;3.50;99.90;;;;;;5054638;28;20988;-88
2024/02/14 04:41:28;;;;;;;22.37;10.70;;;3.50;99.90;;;;;;5055608;28;20750;-88
2024/02/14 04:44:21;;;;;;;19.70;10.13;;;3.40;99.90;;;;;;5055547;28;20202;-88
2024/02/14 04:47:09;;;;;;;23.13;10.83;;;3.50;99.90;;;;;;5055128;28;20190;-87
2024/02/14 04:49:57;;;;;;;21.23;10.20;;;3.50;99.90;;;;;;5042156;28;20689;-87
2024/02/14 04:52:46;;;;;;;22.37;10.90;;;3.50;99.90;;;;;;5054794;28;20195;-87
2024/02/14 04:55:34;;;;;;;24.50;10.57;;;3.40;99.90;;;;;;5054533;28;20202;-88
2024/02/14 04:58:22;;;;;;;23.37;10.37;;;3.40;99.90;;;;;;5055458;28;20678;-87
2024/02/14 05:01:10;;;;;;;21.53;10.80;;;3.50;99.90;;;;;;5055306;28;20245;-88
2024/02/14 05:03:59;;;;;;;25.13;11.03;;;3.60;99.90;;;;;;5053540;28;20679;-87
2024/02/14 05:06:50;;;;;;;22.30;10.27;;;3.60;99.90;;;;;;5054121;28;20199;-87
2024/02/14 05:09:44;;;;;;;19.57;10.43;;;3.50;99.90;;;;;;5054759;28;20221;-87
2024/02/14 05:12:35;;;;;;;23.13;10.80;;;3.50;99.90;;;;;;5052921;28;20640;-87
2024/02/14 05:15:23;;;;;;;23.67;10.47;;;3.50;99.90;;;;;;5053835;28;20285;-87
2024/02/14 05:18:12;;;;;;;22.30;10.13;;;3.50;99.90;;;;;;5053307;28;20237;-88
2024/02/14 05:21:00;;;;;;;18.80;9.67;;;3.40;99.90;;;;;;5054248;28;20212;-88
2024/02/14 05:23:49;;;;;;;20.23;10.17;;;3.40;99.90;;;;;;5054517;28;20260;-87
2024/02/14 05:26:38;;;;;;;23.10;10.40;;;3.60;99.90;;;;;;5054028;28;20211;-88
2024/02/14 05:29:29;;;;;;;19.10;9.97;;;3.50;99.90;;;;;;5040110;28;20234;-88
2024/02/14 05:32:22;;;;;;;23.07;10.40;;;3.40;99.90;;;;;;5058686;28;20191;-88
2024/02/14 05:35:10;;;;;;;21.10;10.20;;;3.10;99.90;;;;;;5059460;28;20199;-88
2024/02/14 05:38:01;;;;;;;20.10;9.83;;;3.30;99.90;;;;;;5047294;28;20309;-88
2024/02/14 05:40:49;;;;;;;22.47;10.67;;;3.30;99.90;;;;;;5060223;28;20206;-88
2024/02/14 05:43:38;;;;;;;19.07;10.33;;;3.30;99.90;;;;;;5056870;28;20205;-88
2024/02/14 05:46:32;;;;;;;18.93;10.23;;;3.30;99.90;;;;;;5053369;28;20195;-89
2024/02/14 05:49:24;;;;;;;22.43;9.87;;;3.30;99.90;;;;;;5054453;28;20194;-88
2024/02/14 05:52:15;;;;;;;18.90;9.87;;;3.20;99.90;;;;;;5054060;28;20324;-89
2024/02/14 05:55:09;;;;;;;18.47;10.27;;;3.50;99.90;;;;;;5040338;28;20203;-89
2024/02/14 05:57:58;;;;;;;21.00;9.90;;;3.20;99.90;;;;;;5052676;28;20211;-88
2024/02/14 06:00:49;;;;;;;20.83;10.23;;;3.10;99.90;;;;;;5039626;28;20219;-89
2024/02/14 06:03:41;;;;;;;25.03;10.33;;;3.10;99.90;;;;;;5038619;28;20676;-89
2024/02/14 06:06:32;;;;;;;20.40;9.77;;;3.10;99.90;;;;;;5054371;28;20193;-88
2024/02/14 06:09:22;;;;;;;21.87;9.90;;;3.10;99.90;;;;;;5053631;28;20191;-88
2024/02/14 06:12:10;;;;;;;19.83;9.93;;;3.00;99.90;;;;;;5053495;28;20225;-88
2024/02/14 06:14:59;;;;;;;20.77;9.93;;;3.30;99.90;;;;;;5053787;28;20205;-88
2024/02/14 06:17:50;;;;;;;17.20;9.27;;;3.10;99.90;;;;;;5052831;28;20237;-88
2024/02/14 06:20:42;;;;;;;19.50;10.00;;;2.90;99.90;;;;;;5040323;28;20213;-89
2024/02/14 06:23:34;;;;;;;18.83;9.27;;;3.10;99.90;;;;;;5054920;28;20222;-88
2024/02/14 06:26:34;;;;;;;17.10;9.40;;;3.10;99.90;;;;;;5057284;28;20196;-89
2024/02/14 06:29:53;;;;;;;20.33;9.93;;;3.20;99.90;;;;;;5058518;28;20198;-90
2024/02/14 06:33:03;;;;;;;19.37;9.37;;;3.20;99.90;;;;;;5054406;28;20205;-89
2024/02/14 06:36:12;;;;;;;17.30;9.07;;;3.10;99.90;;;;;;5039903;28;20285;-90
2024/02/14 06:39:17;;;;;;;20.07;9.93;;;3.10;99.90;;;;;;5057380;28;20197;-91
2024/02/14 06:42:09;;;;;;;18.47;9.43;;;3.20;99.90;;;;;;5040914;28;20219;-90
2024/02/14 06:45:08;;;;;;;20.57;9.73;;;3.20;99.90;;;;;;5052708;28;20195;-90
2024/02/14 06:48:04;;;;;;;21.83;9.47;;;3.20;99.90;;;;;;5068613;28;20199;-87
2024/02/14 06:51:03;;;;;;;16.07;9.00;;;3.20;99.90;;;;;;5055740;28;20202;-88
2024/02/14 06:54:05;;;;;;;21.83;9.90;;;3.30;99.90;;;;;;5071146;28;20224;-87
2024/02/14 06:57:13;;;;;;;17.73;9.30;;;3.30;99.90;;;;;;5065337;28;20211;-88
2024/02/14 07:00:20;;;;;;;18.93;8.77;;;3.30;99.90;;;;;;5038371;28;20650;-89
2024/02/14 07:03:13;;;;;;;22.20;9.53;;;3.30;99.90;;;;;;5052864;28;20697;-88
2024/02/14 07:06:07;;;;;;;18.80;9.17;;;3.30;99.90;;;;;;5052364;28;20191;-89
2024/02/14 07:09:04;;;;;;;20.57;9.50;;;3.30;99.90;;;;;;5052046;28;20639;-89
2024/02/14 07:12:12;;;;;;;18.23;9.17;;;3.60;99.90;;;;;;5040246;28;20221;-89
2024/02/14 07:15:21;;;;;;;19.00;9.40;;;3.30;99.90;;;;;;5056136;28;20690;-89
2024/02/14 07:18:36;;;;;;;24.13;10.30;;;3.40;99.90;;;;;;5055862;28;20703;-90
2024/02/14 07:21:49;;;;;;;19.33;9.40;;;3.40;99.90;;;;;;5054058;28;20636;-89
2024/02/14 07:24:51;;;;;;;22.67;9.27;;;3.60;99.90;;;;;;5043984;28;20209;-90
2024/02/14 07:28:01;;;;;;;19.63;10.07;;;3.50;99.90;;;;;;5060015;28;20214;-90
2024/02/14 07:31:04;;;;;;;20.60;9.57;;;3.50;99.90;;;;;;5042732;28;20203;-90
2024/02/14 07:34:03;;;;;;;19.00;9.87;;;3.70;99.90;;;;;;5056065;28;20281;-90
2024/02/14 07:37:19;;;;;;;23.70;11.03;;;3.70;99.90;;;;;;5057546;28;20202;-90
2024/02/14 07:40:47;;;;;;;21.63;9.77;;;3.80;99.90;;;;;;5072545;28;20202;-91
2024/02/14 07:43:46;;;;;;;19.57;9.63;;;3.90;99.90;;;;;;5071155;28;20217;-91
2024/02/14 07:46:58;;;;;;;20.23;9.40;;;4.00;99.90;;;;;;5049616;28;20236;-91
2024/02/14 07:50:07;;;;;;;21.10;9.30;;;4.10;99.90;;;;;;5046226;28;20217;-91
2024/02/14 07:53:23;;;;;;;22.87;10.40;;;4.10;99.90;;;;;;5053459;28;20248;-91
2024/02/14 07:56:20;;;;;;;26.03;9.77;;;4.20;99.90;;;;;;5036899;28;20187;-90
2024/02/14 07:59:21;;;;;;;19.77;9.43;;;4.20;99.90;;;;;;5050939;28;20195;-91
2024/02/14 08:02:22;;;;;;;19.33;9.67;;;4.30;99.90;;;;;;5047045;28;20218;-90
2024/02/14 08:05:33;;;;;;;18.57;9.30;;;4.40;99.90;;;;;;5053958;28;20197;-90
2024/02/14 08:08:48;;;;;;;19.83;9.57;;;4.50;99.90;;;;;;5049186;28;20195;-90
2024/02/14 08:11:52;;;;;;;18.20;9.43;;;4.60;99.90;;;;;;5049995;28;20218;-90
2024/02/14 08:15:00;;;;;;;19.53;9.83;;;4.80;99.90;;;;;;5047769;28;20214;-91
2024/02/14 08:18:20;;;;;;;19.83;9.50;;;5.30;99.90;;;;;;5051672;28;20282;-90
2024/02/14 08:21:32;;;;;;;21.90;9.17;;;6.20;99.90;;;;;;5048808;28;20264;-90
2024/02/14 08:24:44;;;;;;;15.90;8.70;;;6.80;99.90;;;;;;5050694;28;20225;-92
2024/02/14 08:27:57;;;;;;;17.63;8.40;;;7.40;99.90;;;;;;5056307;28;20220;-90
2024/02/14 08:31:04;;;;;;;19.27;8.20;;;7.80;99.90;;;;;;5053659;28;20198;-90
2024/02/14 08:34:29;;;;;;;16.80;8.10;;;8.10;99.90;;;;;;5044127;28;20206;-88
2024/02/14 08:37:46;;;;;;;16.70;7.43;;;8.30;99.90;;;;;;5054584;28;20205;-88
2024/02/14 08:40:54;;;;;;;17.40;7.50;;;8.70;99.90;;;;;;5049975;28;20198;-90
2024/02/14 08:44:03;;;;;;;17.53;7.70;;;8.90;99.90;;;;;;5049854;28;20252;-91
2024/02/14 08:47:13;;;;;;;13.33;6.90;;;9.20;99.90;;;;;;5062338;28;20213;-90
2024/02/14 08:50:08;;;;;;;15.73;7.63;;;9.50;99.90;;;;;;5046532;28;20202;-90
2024/02/14 08:53:10;;;;;;;13.77;6.50;;;9.60;99.90;;;;;;5044620;28;20253;-89
2024/02/14 08:56:02;;;;;;;11.53;6.40;;;9.70;99.90;;;;;;5039273;28;20195;-90
2024/02/14 08:59:06;;;;;;;15.03;6.40;;;9.70;99.90;;;;;;5039822;28;20202;-90
2024/02/14 09:02:15;;;;;;;10.87;5.97;;;9.70;99.90;;;;;;5042506;28;20195;-90
2024/02/14 09:05:19;;;;;;;10.17;5.70;;;10.00;99.90;;;;;;5053385;28;20650;-91
2024/02/14 09:08:30;;;;;;;10.33;5.63;;;9.90;99.90;;;;;;5056094;28;20217;-90
2024/02/14 09:11:30;;;;;;;10.77;5.27;;;10.00;99.90;;;;;;5041129;28;20199;-90
2024/02/14 09:14:31;;;;;;;10.47;5.20;;;10.20;99.90;;;;;;5043451;28;20264;-90
2024/02/14 09:17:42;;;;;;;9.93;5.53;;;10.00;99.90;;;;;;5044549;28;20226;-91
2024/02/14 09:21:01;;;;;;;13.17;5.40;;;10.70;99.90;;;;;;5046680;28;20198;-92
2024/02/14 09:24:19;;;;;;;10.00;4.87;;;10.80;99.90;;;;;;5046222;28;20227;-90
2024/02/14 09:27:32;;;;;;;8.20;4.23;;;11.10;99.90;;;;;;5046311;28;20297;-91
2024/02/14 09:30:31;;;;;;;7.97;3.57;;;11.00;99.90;;;;;;5045002;28;20195;-90
2024/02/14 09:33:27;;;;;;;8.07;3.80;;;10.80;99.90;;;;;;5040329;28;20199;-90
2024/02/14 09:36:20;;;;;;;8.50;3.57;;;10.90;99.90;;;;;;5024951;28;20242;-90
2024/02/14 09:39:29;;;;;;;7.57;3.40;;;11.30;99.90;;;;;;5046167;28;20198;-90
2024/02/14 09:42:59;;;;;;;6.40;3.23;;;11.50;99.90;;;;;;5044210;28;20223;-91
2024/02/14 09:46:07;;;;;;;8.27;3.53;;;11.10;99.90;;;;;;5048075;28;20282;-90
2024/02/14 09:49:08;;;;;;;7.47;3.53;;;11.20;99.90;;;;;;5024054;28;20200;-88
2024/02/14 09:52:20;;;;;;;14.10;4.10;;;10.90;99.90;;;;;;5038311;28;20191;-89
2024/02/14 09:55:16;;;;;;;7.60;3.17;;;11.20;99.90;;;;;;5047592;28;20192;-88
2024/02/14 09:58:17;;;;;;;6.13;3.00;;;11.60;99.90;;;;;;5027268;28;20215;-89
2024/02/14 10:01:23;;;;;;;7.57;2.80;;;11.30;99.90;;;;;;5039807;28;20214;-90
2024/02/14 10:04:49;;;;;;;5.60;2.80;;;11.70;99.90;;;;;;5033015;28;20253;-90
2024/02/14 10:07:47;;;;;;;4.57;2.70;;;11.70;99.90;;;;;;5028929;28;20200;-86
2024/02/14 10:11:03;;;;;;;;;;;;;;;;;;;;;
2024/02/14 10:14:36;;;;;;;5.53;2.70;;;12.00;99.90;;;;;;5046177;28;20646;-89
2024/02/14 10:17:57;;;;;;;8.63;3.30;;;12.10;99.90;;;;;;5048200;28;20226;-88
2024/02/14 10:21:33;;;;;;;6.30;3.20;;;12.00;99.90;;;;;;5033458;28;20167;-88
2024/02/14 10:25:06;;;;;;;8.30;3.37;;;12.40;99.90;;;;;;5058467;28;20210;-88
2024/02/14 10:28:22;;;;;;;5.07;2.53;;;12.50;99.90;;;;;;5034024;28;20215;-88
2024/02/14 10:31:30;;;;;;;5.30;2.53;;;12.50;99.90;;;;;;5042177;28;20223;-89
2024/02/14 10:34:33;;;;;;;5.97;2.83;;;12.60;99.90;;;;;;5042028;28;20200;-89
2024/02/14 10:37:36;;;;;;;5.87;2.70;;;12.60;99.90;;;;;;5038242;28;20655;-89
2024/02/14 10:40:54;;;;;;;4.93;2.43;;;12.50;99.90;;;;;;5040535;28;20652;-90
2024/02/14 10:43:50;;;;;;;5.33;2.17;;;12.60;99.90;;;;;;5037093;28;20218;-90
2024/02/14 10:46:51;;;;;;;6.30;2.60;;;12.80;99.90;;;;;;5040409;28;20207;-88
2024/02/14 10:49:52;;;;;;;4.70;2.10;;;13.20;99.90;;;;;;5045369;28;20187;-89
2024/02/14 10:52:47;;;;;;;3.77;1.90;;;13.80;99.90;;;;;;5033283;28;20195;-88
2024/02/14 10:55:49;;;;;;;4.77;2.10;;;13.60;99.90;;;;;;5044201;28;20196;-88
2024/02/14 10:58:46;;;;;;;3.60;1.77;;;13.60;99.90;;;;;;5039679;28;20199;-88
2024/02/14 11:01:36;;;;;;;3.20;1.90;;;13.60;99.90;;;;;;5040718;28;20203;-89
2024/02/14 11:04:25;;;;;;;4.13;2.17;;;13.30;99.90;;;;;;5033770;28;20265;-89
2024/02/14 11:07:19;;;;;;;4.67;2.13;;;13.60;99.90;;;;;;5033530;28;20346;-91
2024/02/14 11:10:08;;;;;;;6.63;2.37;;;13.60;99.90;;;;;;5034065;28;20205;-89
2024/02/14 11:13:01;;;;;;;5.43;1.80;;;13.70;99.90;;;;;;5021767;28;20219;-90
2024/02/14 11:15:56;;;;;;;4.40;2.30;;;14.00;99.90;;;;;;5035397;28;20555;-89
2024/02/14 11:18:44;;;;;;;3.83;2.17;;;14.60;99.90;;;;;;5032760;28;20674;-89
2024/02/14 11:21:38;;;;;;;3.60;2.13;;;14.00;99.90;;;;;;5032388;28;20336;-84
2024/02/14 11:24:29;;;;;;;4.47;1.90;;;13.40;99.90;;;;;;5031652;28;20587;-88
2024/02/14 11:27:22;;;;;;;5.33;2.07;;;13.20;99.90;;;;;;5031509;28;20209;-88
2024/02/14 11:30:35;;;;;;;2.70;1.70;;;13.70;99.90;;;;;;5032808;28;20233;-89
2024/02/14 11:33:27;;;;;;;4.03;1.93;;;13.40;99.90;;;;;;5033025;28;20218;-89
2024/02/14 11:36:17;;;;;;;3.20;1.70;;;13.00;99.90;;;;;;5032992;28;20551;-88
2024/02/14 11:39:05;;;;;;;5.23;1.90;;;13.30;99.90;;;;;;5018879;28;20204;-90
2024/02/14 11:41:56;;;;;;;4.03;1.80;;;13.80;99.70;;;;;;5033262;28;20221;-89
2024/02/14 11:44:46;;;;;;;4.17;1.73;;;14.50;98.50;;;;;;5032048;28;20220;-89
2024/02/14 11:47:34;;;;;;;6.40;2.23;;;14.70;97.00;;;;;;5020338;28;20196;-89
2024/02/14 11:50:22;;;;;;;5.57;2.00;;;14.90;96.30;;;;;;5019094;28;20609;-89
2024/02/14 11:53:17;;;;;;;8.07;1.90;;;14.60;96.00;;;;;;5034036;28;20191;-90
2024/02/14 11:56:06;;;;;;;4.17;2.07;;;14.60;96.00;;;;;;5033365;28;20391;-90
2024/02/14 11:58:56;;;;;;;3.43;1.83;;;15.20;95.90;;;;;;5022352;28;20280;-87
2024/02/14 12:01:46;;;;;;;4.77;2.30;;;15.30;94.50;;;;;;5031978;28;20439;-89
2024/02/14 12:04:37;;;;;;;3.97;2.00;;;15.00;95.10;;;;;;5018935;28;20253;-89
2024/02/14 12:07:29;;;;;;;7.93;2.30;;;15.40;94.50;;;;;;5018943;28;20288;-89
2024/02/14 12:10:26;;;;;;;5.30;1.90;;;15.40;94.20;;;;;;5031359;28;20203;-90
2024/02/14 12:13:16;;;;;;;4.57;1.97;;;16.30;93.30;;;;;;5031517;28;20207;-88
2024/02/14 12:16:22;;;;;;;4.13;1.97;;;16.40;91.50;;;;;;5037092;28;20570;-89
2024/02/14 12:19:16;;;;;;;4.87;1.80;;;16.20;92.50;;;;;;5031201;28;20219;-89
2024/02/14 12:22:17;;;;;;;5.13;2.03;;;16.90;91.00;;;;;;5032119;28;20192;-88
2024/02/14 12:25:07;;;;;;;4.97;2.10;;;17.10;89.40;;;;;;5032517;28;20300;-89
2024/02/14 12:27:59;;;;;;;3.60;1.90;;;17.70;87.70;;;;;;5031396;28;20212;-89
2024/02/14 12:30:57;;;;;;;4.53;1.97;;;17.30;86.00;;;;;;5022524;28;20599;-89
2024/02/14 12:33:49;;;;;;;4.00;2.13;;;17.30;87.20;;;;;;5030234;28;20196;-89
2024/02/14 12:36:45;;;;;;;3.40;2.00;;;18.00;85.60;;;;;;5020252;28;20707;-89
2024/02/14 12:39:34;;;;;;;3.23;1.70;;;18.50;82.10;;;;;;5019397;28;20210;-89
2024/02/14 12:42:27;;;;;;;4.27;1.73;;;19.50;78.80;;;;;;5032373;28;20211;-89
2024/02/14 12:45:18;;;;;;;5.97;2.00;;;18.80;75.40;;;;;;5017937;28;20196;-88
2024/02/14 12:48:15;;;;;;;3.73;2.00;;;17.90;77.80;;;;;;5031518;28;20203;-89
2024/02/14 12:51:09;;;;;;;3.57;2.03;;;18.10;77.40;;;;;;5030354;28;20194;-89
2024/02/14 12:54:15;;;;;;;4.57;1.80;;;17.60;76.60;;;;;;5031103;28;20288;-88
2024/02/14 12:57:10;;;;;;;3.07;1.93;;;17.60;78.40;;;;;;5035394;28;20218;-88
2024/02/14 13:00:15;;;;;;;5.23;2.10;;;18.50;76.20;;;;;;5022445;28;20640;-89
2024/02/14 13:03:04;;;;;;;5.00;2.10;;;18.20;74.00;;;;;;5021662;28;20249;-88
2024/02/14 13:05:57;;;;;;;4.30;2.17;;;18.50;74.90;;;;;;5037338;28;20199;-89
2024/02/14 13:08:47;;;;;;;3.57;1.90;;;18.40;74.80;;;;;;5034492;28;20206;-89
2024/02/14 13:11:35;;;;;;;3.37;1.80;;;18.90;73.50;;;;;;5035125;28;20247;-88
2024/02/14 13:14:34;;;;;;;3.97;1.80;;;18.30;71.00;;;;;;5036453;28;20199;-88
2024/02/14 13:18:00;;;;;;;5.77;2.30;;;17.60;75.10;;;;;;5037450;28;20195;-89
2024/02/14 13:21:27;;;;;;;5.70;2.33;;;16.90;76.40;;;;;;5020341;28;20581;-89
2024/02/14 13:24:55;;;;;;;;;;;;;;;;;;;;;
2024/02/14 13:27:55;;;;;;;3.83;2.10;;;16.00;78.50;;;;;;5039440;28;20242;-87
2024/02/14 13:31:06;;;;;;;4.00;1.93;;;14.50;81.20;;;;;;5036808;28;20191;-88
2024/02/14 13:34:06;;;;;;;2.93;1.73;;;13.90;82.60;;;;;;5038452;28;20222;-88
2024/02/14 13:37:08;;;;;;;3.07;1.80;;;13.80;83.70;;;;;;5035098;28;20337;-88
2024/02/14 13:40:23;;;;;;;3.47;2.10;;;13.50;83.00;;;;;;5023027;28;20215;-89
2024/02/14 13:43:26;;;;;;;5.37;2.40;;;13.20;85.10;;;;;;5039181;28;20317;-88
2024/02/14 13:46:30;;;;;;;4.83;2.30;;;12.90;87.20;;;;;;5040152;28;20245;-88
2024/02/14 13:49:28;;;;;;;3.80;2.20;;;12.80;88.60;;;;;;5024789;28;20222;-88
2024/02/14 13:52:28;;;;;;;8.03;2.50;;;13.00;89.90;;;;;;5045278;28;20678;-88
2024/02/14 13:55:32;;;;;;;3.73;2.00;;;13.20;89.40;;;;;;5051663;28;20203;-88
2024/02/14 13:58:37;;;;;;;4.83;2.07;;;13.40;89.60;;;;;;5028128;28;20354;-88
2024/02/14 14:01:35;;;;;;;5.03;2.50;;;13.30;90.00;;;;;;5025190;28;20223;-88
2024/02/14 14:04:28;;;;;;;4.97;2.33;;;13.00;88.80;;;;;;5042978;28;20676;-87
2024/02/14 14:07:17;;;;;;;4.00;2.57;;;12.80;90.20;;;;;;5038069;28;20196;-87
2024/02/14 14:10:15;;;;;;;4.97;2.40;;;13.10;91.00;;;;;;5047290;28;20550;-89
2024/02/14 14:13:16;;;;;;;5.63;2.50;;;13.10;90.40;;;;;;5044490;28;20571;-89
2024/02/14 14:16:11;;;;;;;5.83;2.47;;;12.90;90.00;;;;;;5031200;28;20191;-88
2024/02/14 14:19:04;;;;;;;4.03;2.20;;;12.60;90.70;;;;;;5040082;28;20223;-89
2024/02/14 14:22:01;;;;;;;8.73;2.10;;;12.60;90.80;;;;;;5039280;28;20206;-88
2024/02/14 14:24:59;;;;;;;4.87;2.33;;;12.40;90.70;;;;;;5028775;28;20236;-89
2024/02/14 14:27:52;;;;;;;5.40;2.37;;;12.10;91.70;;;;;;5039929;28;20223;-89
2024/02/14 14:30:47;;;;;;;6.27;2.57;;;11.90;92.20;;;;;;5042138;28;20192;-91
2024/02/14 14:33:46;;;;;;;5.50;2.33;;;11.80;92.50;;;;;;5042235;28;20187;-91
2024/02/14 14:36:37;;;;;;;5.77;2.40;;;11.60;93.50;;;;;;5040808;28;20195;-89
2024/02/14 14:39:26;;;;;;;6.10;2.57;;;11.50;93.50;;;;;;5032619;28;20198;-83
2024/02/14 14:42:17;;;;;;;8.73;2.93;;;11.50;94.10;;;;;;5033491;28;20306;-83
2024/02/14 14:45:06;;;;;;;6.70;2.53;;;11.40;94.20;;;;;;5019881;28;20216;-84
2024/02/14 14:47:53;;;;;;;3.80;2.20;;;11.50;94.80;;;;;;5032837;28;20210;-84
2024/02/14 14:50:41;;;;;;;7.07;2.57;;;11.70;94.60;;;;;;5033520;28;20579;-83
2024/02/14 14:53:30;;;;;;;4.00;2.10;;;11.70;94.10;;;;;;5033227;28;20198;-83
2024/02/14 14:56:18;;;;;;;5.80;2.37;;;11.70;94.00;;;;;;5033285;28;20238;-84
2024/02/14 14:59:06;;;;;;;7.80;2.60;;;11.50;94.10;;;;;;5019246;28;20203;-83
2024/02/14 15:01:54;;;;;;;5.03;2.40;;;11.40;94.30;;;;;;5033032;28;20195;-84
2024/02/14 15:04:44;;;;;;;3.87;2.23;;;11.10;94.60;;;;;;5032916;28;20242;-82
2024/02/14 15:07:31;;;;;;;6.47;2.60;;;10.80;95.40;;;;;;5019449;28;20218;-83
2024/02/14 15:10:18;;;;;;;5.00;2.03;;;10.60;96.00;;;;;;5020409;28;20188;-83
2024/02/14 15:13:09;;;;;;;4.83;2.70;;;10.40;96.70;;;;;;5035251;28;20301;-84
2024/02/14 15:15:58;;;;;;;5.17;2.20;;;10.30;97.20;;;;;;5033005;28;20254;-83
2024/02/14 15:18:46;;;;;;;6.23;2.50;;;10.30;97.70;;;;;;5032478;28;20227;-83
2024/02/14 15:21:34;;;;;;;5.07;2.53;;;10.20;98.60;;;;;;5032253;28;20731;-83
2024/02/14 15:24:21;;;;;;;7.93;2.57;;;10.10;98.80;;;;;;5032874;28;20227;-83
2024/02/14 15:27:10;;;;;;;6.33;2.90;;;10.00;99.40;;;;;;5032827;28;20280;-84